Historyczne dane pomiarowe

Dodano dane terminowe – wersja testowa.

Dane z okresu 1951-2019

Wersja bazy: 1.34 [2019-03-16, lista zmian], aktualizacja planowana na 2019-04-15

Dane meteo z obszaru Polski uzyskane na podstawie danych udostępnionych przez Instytut Meteorologii i Gospodarki Wodnej – Państwowy Instytut Badawczy.

 

Wybierz Datę:    

       

TemperaturaWilgotnośćWiatrCiśnienieOpadyŚniegCzas trwania zjawisk
 Stacja t tx tn tng RH VA  wxwx mslp ppp RRR   cm mm wxwxwxwxwxwxwx
2019-07-25 20.2 25.1 14.1 12.3 64.5- 1.7 1.7---- 0.0------------
2019-07-24 16.5 18.6 14.0 13.7 91.0- 7.3 1.7---- 8.0------------
2019-07-23 15.6 19.6 13.1 13.7 90.8- 7.7 3.3---- 0.2------------
2019-07-22 18.6 23.7 14.1 13.2 71.8- 5.3 3.3---- 0.5------------
2019-07-21 20.4 27.1 17.1 17.1 75.3- 4.7 4.3---- 7.3------------
2019-07-20 20.0 25.1 15.5 14.7 70.3- 4.0 1.7---- 0.0------------
2019-07-19 18.6 24.1 14.5 11.8 51.8- 3.7 4.0---- 3.2------------
2019-07-18 15.3 20.1 9.6 6.9 60.0- 3.0 1.0---- 0.0------------
2019-07-17 13.3 17.6 10.1 10.3 81.3- 6.0 4.7---- 0.0------------
2019-07-16 13.8 16.1 11.6 7.2 73.3- 4.3 6.3---- 0.0------------
2019-07-15 14.6 19.6 10.1 7.4 60.3- 1.3 3.0---- 0.0------------
2019-07-14 15.2 19.6 12.1 11.0 75.0- 5.7 3.7---- 4.1------------
2019-07-13 15.4 18.6 13.6 11.8 74.0- 8.0 3.3---- 0.9------------
2019-07-12 16.3 21.1 10.6 7.9 54.8- 4.3 1.3---- 0.1------------
2019-07-11 12.2 16.1 8.6 8.6 79.8- 5.0 3.7---- 1.7------------
2019-07-10 12.3 15.1 9.6 9.3 80.8- 6.7 5.3---- 1.3------------
2019-07-09 12.2 17.1 8.1 7.1 74.0- 5.7 5.7---- 0.8------------
2019-07-08 12.0 15.1 9.6 9.6 66.8- 5.0 4.3---- 0.0------------
2019-07-07 15.3 20.1 11.1 11.8 75.3- 4.3 4.3---- 0.0------------
2019-07-06 16.3 22.1 11.1 11.1 71.3- 7.3 3.0---- 0.0------------
2019-07-05 14.8 17.6 12.6 9.8 50.0- 8.0 4.0---- 0.0------------
2019-07-04 14.7 19.1 9.1 7.1 50.8- 2.3 2.3---- 0.0------------
2019-07-03 15.0 18.0 12.1 9.6 54.0- 1.7 3.3---- 0.0------------
2019-07-02 19.8 26.3 15.5 15.8 65.8- 3.0 4.0---- 0.0------------
2019-07-01 25.1 32.1 20.0 17.2 52.5- 3.0 5.0---- 3.0------------
2019-06-30 23.6 29.6 17.5 13.6 41.5- 0.7 4.3---- 0.0------------
2019-06-29 17.6 23.1 9.6 8.8 47.0- 1.3 4.0---- 0.0------------
2019-06-28 15.6 19.1 11.1 12.7 64.0- 3.3 5.3---- 0.0------------
2019-06-27 20.3 26.2 17.0 16.7 73.3- 3.7 5.7---- 0.0------------
2019-06-26 24.7 28.6 18.5 17.2 63.3- 1.3 3.7---- 0.0------------
2019-06-25 21.6 26.6 17.0 14.7 71.3- 1.3 3.0---- 0.0------------
2019-06-24 19.2 22.6 14.6 13.2 72.8- 2.7 2.3---- 0.0------------
2019-06-23 17.3 22.6 12.1 11.8 69.8- 2.3 4.0---- 0.0------------
2019-06-22 17.6 22.9 14.1 13.7 85.8- 5.0 3.0---- 0.0------------
2019-06-21 19.5 26.1 16.0 15.0 80.0- 7.0 2.3---- 49.0------------
2019-06-20 20.6 24.6 15.8 15.6 77.8- 5.3 2.3---- 4.0------------
2019-06-19 18.8 26.1 15.5 14.2 86.5- 4.7 3.3---- 32.0------------
2019-06-18 17.4 22.1 12.1 9.8 81.5- 3.0 1.7---- 0.0------------
2019-06-17 16.0 20.6 13.4 13.4 82.8- 5.7 3.7---- 0.0------------
2019-06-16 21.0 27.1 17.8 17.1 75.3- 4.0 4.7---- 5.0------------
2019-06-15 24.1 29.1 20.3 17.1 69.3- 0.7 2.3---- 0.0------------
2019-06-14 22.3 27.1 17.7 17.1 74.8- 1.3 2.7---- 0.0------------
2019-06-13 23.9 27.6 19.1 16.6 62.0- 1.3 3.3---- 0.0------------
2019-06-12 23.1 27.8 19.3 17.2 59.0- 0.7 4.7---- 0.0------------
2019-06-11 22.3 27.1 17.5 16.6 71.8- 2.0 5.0---- 0.0------------
2019-06-10 20.8 26.1 16.2 15.2 77.3- 1.0 4.7---- 0.0------------
2019-06-09 17.8 22.6 13.6 11.8 70.0- 1.3 4.7---- 0.0------------
2019-06-08 20.3 25.8 15.5 13.2 68.5- 3.7 4.0---- 0.0------------
2019-06-07 18.1 22.6 14.0 13.2 82.8- 3.0 2.0---- 0.0------------
2019-06-06 17.5 23.1 13.1 13.1 75.5- 2.7 4.0---- 0.0------------
2019-06-05 19.1 23.6 15.1 13.5 71.8- 2.7 3.3---- 0.0------------
2019-06-04 20.0 24.1 15.5 12.6 65.0- 1.7 2.0---- 0.0------------
2019-06-03 18.6 23.4 14.4 10.3 60.3- 0.0 2.0---- 0.0------------
2019-06-02 17.3 22.6 13.0 9.8 68.0- 2.7 1.3---- 2.0------------
2019-06-01 16.8 22.1 12.9 9.3 73.0- 1.3 3.0---- 0.0------------
2019-05-31 14.4 19.6 9.9 9.3 57.0- 1.7 2.3---- 0.0------------
2019-05-30 10.0 14.1 6.5 6.9 80.0- 7.3 4.3---- 0.1------------
2019-05-29 10.8 15.0 7.6 9.5 98.5- 8.0 5.7---- 0.6------------
2019-05-28 15.3 18.6 13.2 13.3 91.3- 4.3 5.7---- 13.7------------
2019-05-27 16.5 21.1 14.1 12.3 76.8- 4.3 4.0---- 4.3------------
72.9 ms

 

Źródłem pochodzenia danych jest Instytut Meteorologii i Gospodarki Wodnej – Państwowy Instytut Badawczy. Dane Instytutu Meteorologii i Gospodarki Wodnej – Państwowego Instytutu Badawczego zostały przetworzone.

Dane źródłowe można odnaleźć na stronie https://dane.imgw.pl